sensor_id;sensor_type;location;lat;lon;timestamp;P1;durP1;ratioP1;P2;durP2;ratioP2
57561;SDS011;43397;51.530;5.974;2023-02-14T00:02:05;34.15;;;20.92;;
57561;SDS011;43397;51.530;5.974;2023-02-14T00:04:31;33.47;;;22.63;;
57561;SDS011;43397;51.530;5.974;2023-02-14T00:06:57;31.17;;;21.20;;
57561;SDS011;43397;51.530;5.974;2023-02-14T00:09:23;31.77;;;21.92;;
57561;SDS011;43397;51.530;5.974;2023-02-14T00:11:49;33.22;;;20.42;;
57561;SDS011;43397;51.530;5.974;2023-02-14T00:14:15;24.80;;;16.58;;
57561;SDS011;43397;51.530;5.974;2023-02-14T00:16:41;28.75;;;19.20;;
57561;SDS011;43397;51.530;5.974;2023-02-14T00:19:09;29.17;;;18.63;;
57561;SDS011;43397;51.530;5.974;2023-02-14T00:21:37;34.35;;;21.58;;
57561;SDS011;43397;51.530;5.974;2023-02-14T00:24:04;35.55;;;21.60;;
57561;SDS011;43397;51.530;5.974;2023-02-14T00:26:32;38.72;;;22.70;;
57561;SDS011;43397;51.530;5.974;2023-02-14T00:28:58;36.38;;;22.15;;
57561;SDS011;43397;51.530;5.974;2023-02-14T00:31:23;37.65;;;23.58;;
57561;SDS011;43397;51.530;5.974;2023-02-14T00:33:50;35.30;;;22.52;;
57561;SDS011;43397;51.530;5.974;2023-02-14T00:36:17;37.50;;;24.48;;
57561;SDS011;43397;51.530;5.974;2023-02-14T00:38:44;35.70;;;22.52;;
57561;SDS011;43397;51.530;5.974;2023-02-14T00:41:10;31.65;;;22.77;;
57561;SDS011;43397;51.530;5.974;2023-02-14T00:43:35;33.75;;;22.45;;
57561;SDS011;43397;51.530;5.974;2023-02-14T00:46:01;42.40;;;25.15;;
57561;SDS011;43397;51.530;5.974;2023-02-14T00:48:27;44.42;;;25.55;;
57561;SDS011;43397;51.530;5.974;2023-02-14T00:50:52;41.15;;;25.92;;
57561;SDS011;43397;51.530;5.974;2023-02-14T00:53:19;39.20;;;24.27;;
57561;SDS011;43397;51.530;5.974;2023-02-14T00:55:45;33.90;;;22.05;;
57561;SDS011;43397;51.530;5.974;2023-02-14T00:58:11;30.65;;;20.40;;
57561;SDS011;43397;51.530;5.974;2023-02-14T01:00:38;34.13;;;21.73;;
57561;SDS011;43397;51.530;5.974;2023-02-14T01:03:04;42.38;;;27.20;;
57561;SDS011;43397;51.530;5.974;2023-02-14T01:05:29;43.58;;;27.58;;
57561;SDS011;43397;51.530;5.974;2023-02-14T01:07:55;49.72;;;30.38;;
57561;SDS011;43397;51.530;5.974;2023-02-14T01:10:22;44.28;;;29.45;;
57561;SDS011;43397;51.530;5.974;2023-02-14T01:12:48;43.58;;;26.35;;
57561;SDS011;43397;51.530;5.974;2023-02-14T01:15:14;48.03;;;28.33;;
57561;SDS011;43397;51.530;5.974;2023-02-14T01:17:40;44.60;;;28.10;;
57561;SDS011;43397;51.530;5.974;2023-02-14T01:20:07;43.63;;;27.10;;
57561;SDS011;43397;51.530;5.974;2023-02-14T01:22:35;41.43;;;24.60;;
57561;SDS011;43397;51.530;5.974;2023-02-14T01:25:01;44.30;;;26.23;;
57561;SDS011;43397;51.530;5.974;2023-02-14T01:27:28;47.45;;;26.13;;
57561;SDS011;43397;51.530;5.974;2023-02-14T01:29:54;48.00;;;28.90;;
57561;SDS011;43397;51.530;5.974;2023-02-14T01:32:20;42.20;;;26.13;;
57561;SDS011;43397;51.530;5.974;2023-02-14T01:34:46;39.13;;;24.58;;
57561;SDS011;43397;51.530;5.974;2023-02-14T01:37:11;43.35;;;26.35;;
57561;SDS011;43397;51.530;5.974;2023-02-14T01:39:37;34.25;;;24.33;;
57561;SDS011;43397;51.530;5.974;2023-02-14T01:42:03;34.45;;;21.98;;
57561;SDS011;43397;51.530;5.974;2023-02-14T01:47:23;35.00;;;21.63;;
57561;SDS011;43397;51.530;5.974;2023-02-14T01:49:51;34.60;;;20.95;;
57561;SDS011;43397;51.530;5.974;2023-02-14T01:52:21;34.25;;;22.33;;
57561;SDS011;43397;51.530;5.974;2023-02-14T01:54:50;34.33;;;22.17;;
57561;SDS011;43397;51.530;5.974;2023-02-14T01:57:20;40.92;;;25.02;;
57561;SDS011;43397;51.530;5.974;2023-02-14T01:59:49;43.22;;;26.42;;
57561;SDS011;43397;51.530;5.974;2023-02-14T02:02:19;44.22;;;26.30;;
57561;SDS011;43397;51.530;5.974;2023-02-14T02:04:44;44.85;;;26.60;;
57561;SDS011;43397;51.530;5.974;2023-02-14T02:07:12;44.85;;;27.13;;
57561;SDS011;43397;51.530;5.974;2023-02-14T02:09:42;40.47;;;23.98;;
57561;SDS011;43397;51.530;5.974;2023-02-14T02:12:12;37.42;;;24.05;;
57561;SDS011;43397;51.530;5.974;2023-02-14T02:14:38;39.30;;;25.35;;
57561;SDS011;43397;51.530;5.974;2023-02-14T02:17:14;40.13;;;23.60;;
57561;SDS011;43397;51.530;5.974;2023-02-14T02:20:08;31.83;;;21.35;;
57561;SDS011;43397;51.530;5.974;2023-02-14T02:28:54;35.47;;;21.58;;
57561;SDS011;43397;51.530;5.974;2023-02-14T02:38:01;33.33;;;21.80;;
57561;SDS011;43397;51.530;5.974;2023-02-14T02:40:40;38.88;;;22.25;;
57561;SDS011;43397;51.530;5.974;2023-02-14T02:43:14;36.22;;;21.45;;
57561;SDS011;43397;51.530;5.974;2023-02-14T02:45:54;35.20;;;21.25;;
57561;SDS011;43397;51.530;5.974;2023-02-14T02:48:25;32.20;;;21.25;;
57561;SDS011;43397;51.530;5.974;2023-02-14T02:51:00;40.53;;;24.25;;
57561;SDS011;43397;51.530;5.974;2023-02-14T02:53:32;35.05;;;20.90;;
57561;SDS011;43397;51.530;5.974;2023-02-14T02:56:04;35.47;;;21.50;;
57561;SDS011;43397;51.530;5.974;2023-02-14T02:58:36;33.58;;;21.98;;
57561;SDS011;43397;51.530;5.974;2023-02-14T03:01:08;37.67;;;23.33;;
57561;SDS011;43397;51.530;5.974;2023-02-14T03:03:36;41.13;;;22.52;;
57561;SDS011;43397;51.530;5.974;2023-02-14T03:06:07;37.22;;;22.30;;
57561;SDS011;43397;51.530;5.974;2023-02-14T03:08:33;37.35;;;23.45;;
57561;SDS011;43397;51.530;5.974;2023-02-14T03:10:59;37.00;;;22.25;;
57561;SDS011;43397;51.530;5.974;2023-02-14T03:13:36;39.88;;;22.88;;
57561;SDS011;43397;51.530;5.974;2023-02-14T03:16:21;31.27;;;20.70;;
57561;SDS011;43397;51.530;5.974;2023-02-14T03:21:57;31.63;;;19.92;;
57561;SDS011;43397;51.530;5.974;2023-02-14T03:24:29;32.45;;;19.10;;
57561;SDS011;43397;51.530;5.974;2023-02-14T03:27:03;27.02;;;18.48;;
57561;SDS011;43397;51.530;5.974;2023-02-14T03:29:36;28.30;;;18.00;;
57561;SDS011;43397;51.530;5.974;2023-02-14T03:32:10;35.28;;;21.30;;
57561;SDS011;43397;51.530;5.974;2023-02-14T03:34:43;34.90;;;20.50;;
57561;SDS011;43397;51.530;5.974;2023-02-14T03:37:19;33.97;;;21.70;;
57561;SDS011;43397;51.530;5.974;2023-02-14T03:39:50;34.42;;;21.13;;
57561;SDS011;43397;51.530;5.974;2023-02-14T03:42:23;34.70;;;22.55;;
57561;SDS011;43397;51.530;5.974;2023-02-14T03:44:53;41.25;;;22.75;;
57561;SDS011;43397;51.530;5.974;2023-02-14T03:47:21;32.15;;;21.30;;
57561;SDS011;43397;51.530;5.974;2023-02-14T03:49:51;28.65;;;18.23;;
57561;SDS011;43397;51.530;5.974;2023-02-14T03:52:22;31.65;;;19.02;;
57561;SDS011;43397;51.530;5.974;2023-02-14T03:54:51;30.27;;;18.58;;
57561;SDS011;43397;51.530;5.974;2023-02-14T03:57:22;24.73;;;16.75;;
57561;SDS011;43397;51.530;5.974;2023-02-14T04:02:18;23.80;;;15.70;;
57561;SDS011;43397;51.530;5.974;2023-02-14T04:04:49;27.10;;;16.30;;
57561;SDS011;43397;51.530;5.974;2023-02-14T04:07:18;24.88;;;17.38;;
57561;SDS011;43397;51.530;5.974;2023-02-14T04:09:47;29.10;;;17.80;;
57561;SDS011;43397;51.530;5.974;2023-02-14T04:12:14;29.38;;;17.88;;
57561;SDS011;43397;51.530;5.974;2023-02-14T04:14:41;25.20;;;16.70;;
57561;SDS011;43397;51.530;5.974;2023-02-14T04:17:08;31.05;;;18.38;;
57561;SDS011;43397;51.530;5.974;2023-02-14T04:19:33;32.10;;;17.90;;
57561;SDS011;43397;51.530;5.974;2023-02-14T04:21:59;27.50;;;17.85;;
57561;SDS011;43397;51.530;5.974;2023-02-14T04:24:25;29.08;;;18.10;;
57561;SDS011;43397;51.530;5.974;2023-02-14T04:26:52;31.60;;;17.98;;
57561;SDS011;43397;51.530;5.974;2023-02-14T04:29:18;34.92;;;19.75;;
57561;SDS011;43397;51.530;5.974;2023-02-14T04:31:44;29.92;;;19.40;;
57561;SDS011;43397;51.530;5.974;2023-02-14T04:34:09;32.10;;;19.08;;
57561;SDS011;43397;51.530;5.974;2023-02-14T04:36:35;29.63;;;18.85;;
57561;SDS011;43397;51.530;5.974;2023-02-14T04:39:01;29.52;;;20.60;;
57561;SDS011;43397;51.530;5.974;2023-02-14T04:41:26;32.13;;;18.55;;
57561;SDS011;43397;51.530;5.974;2023-02-14T04:43:53;33.33;;;18.77;;
57561;SDS011;43397;51.530;5.974;2023-02-14T04:46:19;28.38;;;17.85;;
57561;SDS011;43397;51.530;5.974;2023-02-14T04:48:46;32.45;;;19.08;;
57561;SDS011;43397;51.530;5.974;2023-02-14T04:51:12;33.85;;;19.08;;
57561;SDS011;43397;51.530;5.974;2023-02-14T04:53:40;29.65;;;17.88;;
57561;SDS011;43397;51.530;5.974;2023-02-14T04:56:06;29.20;;;19.35;;
57561;SDS011;43397;51.530;5.974;2023-02-14T04:58:32;29.10;;;18.55;;
57561;SDS011;43397;51.530;5.974;2023-02-14T05:00:59;31.95;;;18.65;;
57561;SDS011;43397;51.530;5.974;2023-02-14T05:03:25;29.95;;;18.25;;
57561;SDS011;43397;51.530;5.974;2023-02-14T05:05:51;33.17;;;17.38;;
57561;SDS011;43397;51.530;5.974;2023-02-14T05:08:16;26.35;;;15.73;;
57561;SDS011;43397;51.530;5.974;2023-02-14T05:10:42;24.13;;;16.10;;
57561;SDS011;43397;51.530;5.974;2023-02-14T05:13:08;27.42;;;16.27;;
57561;SDS011;43397;51.530;5.974;2023-02-14T05:15:33;25.10;;;15.82;;
57561;SDS011;43397;51.530;5.974;2023-02-14T05:18:00;23.13;;;16.25;;
57561;SDS011;43397;51.530;5.974;2023-02-14T05:20:26;26.33;;;15.93;;
57561;SDS011;43397;51.530;5.974;2023-02-14T05:22:52;31.92;;;18.90;;
57561;SDS011;43397;51.530;5.974;2023-02-14T05:25:18;31.98;;;19.13;;
57561;SDS011;43397;51.530;5.974;2023-02-14T05:27:44;33.20;;;18.58;;
57561;SDS011;43397;51.530;5.974;2023-02-14T05:30:11;29.40;;;19.40;;
57561;SDS011;43397;51.530;5.974;2023-02-14T05:32:37;29.20;;;19.15;;
57561;SDS011;43397;51.530;5.974;2023-02-14T05:35:05;31.98;;;18.85;;
57561;SDS011;43397;51.530;5.974;2023-02-14T05:37:31;33.95;;;18.52;;
57561;SDS011;43397;51.530;5.974;2023-02-14T05:39:56;30.58;;;18.42;;
57561;SDS011;43397;51.530;5.974;2023-02-14T05:42:22;30.35;;;17.30;;
57561;SDS011;43397;51.530;5.974;2023-02-14T05:44:48;30.92;;;18.33;;
57561;SDS011;43397;51.530;5.974;2023-02-14T05:47:14;34.95;;;18.58;;
57561;SDS011;43397;51.530;5.974;2023-02-14T05:49:40;29.58;;;17.95;;
57561;SDS011;43397;51.530;5.974;2023-02-14T05:52:07;30.85;;;18.60;;
57561;SDS011;43397;51.530;5.974;2023-02-14T05:56:58;27.95;;;17.90;;
57561;SDS011;43397;51.530;5.974;2023-02-14T05:59:24;29.80;;;18.13;;
57561;SDS011;43397;51.530;5.974;2023-02-14T06:01:52;31.63;;;18.30;;
57561;SDS011;43397;51.530;5.974;2023-02-14T06:04:18;26.10;;;16.08;;
57561;SDS011;43397;51.530;5.974;2023-02-14T06:06:44;27.23;;;16.33;;
57561;SDS011;43397;51.530;5.974;2023-02-14T06:09:11;28.80;;;18.25;;
57561;SDS011;43397;51.530;5.974;2023-02-14T06:11:37;28.38;;;17.02;;
57561;SDS011;43397;51.530;5.974;2023-02-14T06:14:05;29.23;;;18.33;;
57561;SDS011;43397;51.530;5.974;2023-02-14T06:16:31;26.58;;;16.98;;
57561;SDS011;43397;51.530;5.974;2023-02-14T06:18:57;28.25;;;17.27;;
57561;SDS011;43397;51.530;5.974;2023-02-14T06:21:23;29.17;;;16.10;;
57561;SDS011;43397;51.530;5.974;2023-02-14T06:23:49;25.17;;;15.60;;
57561;SDS011;43397;51.530;5.974;2023-02-14T06:26:16;31.27;;;18.08;;
57561;SDS011;43397;51.530;5.974;2023-02-14T06:28:41;28.15;;;16.85;;
57561;SDS011;43397;51.530;5.974;2023-02-14T06:31:07;25.85;;;16.50;;
57561;SDS011;43397;51.530;5.974;2023-02-14T06:33:33;23.25;;;15.65;;
57561;SDS011;43397;51.530;5.974;2023-02-14T06:35:58;33.13;;;18.80;;
57561;SDS011;43397;51.530;5.974;2023-02-14T06:38:24;22.45;;;15.40;;
57561;SDS011;43397;51.530;5.974;2023-02-14T06:40:50;26.38;;;16.83;;
57561;SDS011;43397;51.530;5.974;2023-02-14T06:43:17;25.17;;;16.90;;
57561;SDS011;43397;51.530;5.974;2023-02-14T06:45:43;25.85;;;17.10;;
57561;SDS011;43397;51.530;5.974;2023-02-14T06:48:10;30.95;;;17.33;;
57561;SDS011;43397;51.530;5.974;2023-02-14T06:50:36;29.42;;;17.80;;
57561;SDS011;43397;51.530;5.974;2023-02-14T06:53:02;31.13;;;18.95;;
57561;SDS011;43397;51.530;5.974;2023-02-14T06:55:27;32.50;;;17.77;;
57561;SDS011;43397;51.530;5.974;2023-02-14T06:57:53;31.85;;;17.88;;
57561;SDS011;43397;51.530;5.974;2023-02-14T07:00:21;36.58;;;17.80;;
57561;SDS011;43397;51.530;5.974;2023-02-14T07:02:47;28.88;;;16.95;;
57561;SDS011;43397;51.530;5.974;2023-02-14T07:05:12;27.88;;;17.25;;
57561;SDS011;43397;51.530;5.974;2023-02-14T07:07:38;24.95;;;16.13;;
57561;SDS011;43397;51.530;5.974;2023-02-14T07:10:04;29.65;;;15.90;;
57561;SDS011;43397;51.530;5.974;2023-02-14T07:12:31;28.42;;;16.27;;
57561;SDS011;43397;51.530;5.974;2023-02-14T07:14:57;33.42;;;18.23;;
57561;SDS011;43397;51.530;5.974;2023-02-14T07:17:24;36.17;;;20.67;;
57561;SDS011;43397;51.530;5.974;2023-02-14T07:19:50;34.78;;;20.20;;
57561;SDS011;43397;51.530;5.974;2023-02-14T07:22:15;32.95;;;20.02;;
57561;SDS011;43397;51.530;5.974;2023-02-14T07:24:41;38.75;;;21.48;;
57561;SDS011;43397;51.530;5.974;2023-02-14T07:27:07;35.40;;;20.35;;
57561;SDS011;43397;51.530;5.974;2023-02-14T07:29:34;30.88;;;19.92;;
57561;SDS011;43397;51.530;5.974;2023-02-14T07:32:00;29.10;;;17.85;;
57561;SDS011;43397;51.530;5.974;2023-02-14T07:34:27;27.85;;;16.67;;
57561;SDS011;43397;51.530;5.974;2023-02-14T07:36:53;26.05;;;15.63;;
57561;SDS011;43397;51.530;5.974;2023-02-14T07:39:20;25.63;;;15.63;;
57561;SDS011;43397;51.530;5.974;2023-02-14T07:41:46;23.10;;;14.95;;
57561;SDS011;43397;51.530;5.974;2023-02-14T07:44:12;22.42;;;16.35;;
57561;SDS011;43397;51.530;5.974;2023-02-14T07:46:37;23.00;;;16.30;;
57561;SDS011;43397;51.530;5.974;2023-02-14T07:49:03;26.80;;;17.73;;
57561;SDS011;43397;51.530;5.974;2023-02-14T07:51:30;29.85;;;18.25;;
57561;SDS011;43397;51.530;5.974;2023-02-14T07:53:56;30.08;;;19.00;;
57561;SDS011;43397;51.530;5.974;2023-02-14T07:56:22;31.67;;;20.23;;
57561;SDS011;43397;51.530;5.974;2023-02-14T07:58:47;30.25;;;20.63;;
57561;SDS011;43397;51.530;5.974;2023-02-14T08:01:13;35.38;;;22.50;;
57561;SDS011;43397;51.530;5.974;2023-02-14T08:03:39;36.17;;;22.13;;
57561;SDS011;43397;51.530;5.974;2023-02-14T08:06:05;36.60;;;23.73;;
57561;SDS011;43397;51.530;5.974;2023-02-14T08:08:32;41.70;;;24.27;;
57561;SDS011;43397;51.530;5.974;2023-02-14T08:10:58;39.92;;;25.33;;
57561;SDS011;43397;51.530;5.974;2023-02-14T08:13:24;41.65;;;27.13;;
57561;SDS011;43397;51.530;5.974;2023-02-14T08:15:49;39.95;;;26.90;;
57561;SDS011;43397;51.530;5.974;2023-02-14T08:18:15;38.42;;;25.85;;
57561;SDS011;43397;51.530;5.974;2023-02-14T08:20:42;36.05;;;24.58;;
57561;SDS011;43397;51.530;5.974;2023-02-14T08:23:08;37.75;;;26.23;;
57561;SDS011;43397;51.530;5.974;2023-02-14T08:25:35;38.78;;;23.70;;
57561;SDS011;43397;51.530;5.974;2023-02-14T08:28:01;39.55;;;27.27;;
57561;SDS011;43397;51.530;5.974;2023-02-14T08:30:27;44.75;;;26.85;;
57561;SDS011;43397;51.530;5.974;2023-02-14T08:32:53;44.65;;;28.63;;
57561;SDS011;43397;51.530;5.974;2023-02-14T08:35:19;47.75;;;29.60;;
57561;SDS011;43397;51.530;5.974;2023-02-14T08:37:45;42.88;;;27.75;;
57561;SDS011;43397;51.530;5.974;2023-02-14T08:40:11;54.72;;;44.72;;
57561;SDS011;43397;51.530;5.974;2023-02-14T08:42:38;50.42;;;36.65;;
57561;SDS011;43397;51.530;5.974;2023-02-14T08:45:04;41.50;;;29.55;;
57561;SDS011;43397;51.530;5.974;2023-02-14T08:47:31;43.63;;;28.90;;
57561;SDS011;43397;51.530;5.974;2023-02-14T08:49:57;40.97;;;26.88;;
57561;SDS011;43397;51.530;5.974;2023-02-14T08:52:23;43.25;;;28.00;;
57561;SDS011;43397;51.530;5.974;2023-02-14T08:54:49;38.83;;;26.60;;
57561;SDS011;43397;51.530;5.974;2023-02-14T08:57:15;36.05;;;24.60;;
57561;SDS011;43397;51.530;5.974;2023-02-14T08:59:42;36.15;;;23.48;;
57561;SDS011;43397;51.530;5.974;2023-02-14T09:02:10;38.75;;;24.98;;
57561;SDS011;43397;51.530;5.974;2023-02-14T09:04:36;36.78;;;24.73;;
57561;SDS011;43397;51.530;5.974;2023-02-14T09:07:02;33.15;;;22.85;;
57561;SDS011;43397;51.530;5.974;2023-02-14T09:09:28;37.40;;;25.48;;
57561;SDS011;43397;51.530;5.974;2023-02-14T09:11:53;33.00;;;22.85;;
57561;SDS011;43397;51.530;5.974;2023-02-14T09:14:19;33.75;;;22.55;;
57561;SDS011;43397;51.530;5.974;2023-02-14T09:16:46;30.58;;;20.83;;
57561;SDS011;43397;51.530;5.974;2023-02-14T09:19:12;33.45;;;23.00;;
57561;SDS011;43397;51.530;5.974;2023-02-14T09:21:38;39.65;;;23.48;;
57561;SDS011;43397;51.530;5.974;2023-02-14T09:24:05;35.25;;;23.27;;
57561;SDS011;43397;51.530;5.974;2023-02-14T09:26:31;38.78;;;23.95;;
57561;SDS011;43397;51.530;5.974;2023-02-14T09:28:57;28.60;;;19.80;;
57561;SDS011;43397;51.530;5.974;2023-02-14T09:31:23;31.88;;;21.20;;
57561;SDS011;43397;51.530;5.974;2023-02-14T09:33:51;27.80;;;19.95;;
57561;SDS011;43397;51.530;5.974;2023-02-14T09:36:17;28.75;;;19.88;;
57561;SDS011;43397;51.530;5.974;2023-02-14T09:38:42;29.92;;;22.38;;
57561;SDS011;43397;51.530;5.974;2023-02-14T09:41:11;30.90;;;21.65;;
57561;SDS011;43397;51.530;5.974;2023-02-14T09:44:01;26.38;;;19.95;;
57561;SDS011;43397;51.530;5.974;2023-02-14T09:46:30;26.30;;;20.20;;
57561;SDS011;43397;51.530;5.974;2023-02-14T09:49:06;31.00;;;21.58;;
57561;SDS011;43397;51.530;5.974;2023-02-14T09:51:37;30.38;;;21.30;;
57561;SDS011;43397;51.530;5.974;2023-02-14T09:54:10;28.30;;;20.52;;
57561;SDS011;43397;51.530;5.974;2023-02-14T09:56:39;29.45;;;20.65;;
57561;SDS011;43397;51.530;5.974;2023-02-14T09:59:16;31.13;;;20.08;;
57561;SDS011;43397;51.530;5.974;2023-02-14T10:01:48;26.10;;;20.10;;
57561;SDS011;43397;51.530;5.974;2023-02-14T10:04:21;26.70;;;19.50;;
57561;SDS011;43397;51.530;5.974;2023-02-14T10:06:53;26.33;;;21.45;;
57561;SDS011;43397;51.530;5.974;2023-02-14T10:12:18;31.88;;;21.73;;
57561;SDS011;43397;51.530;5.974;2023-02-14T10:14:47;26.85;;;19.73;;
57561;SDS011;43397;51.530;5.974;2023-02-14T10:17:16;25.00;;;18.83;;
57561;SDS011;43397;51.530;5.974;2023-02-14T10:19:48;27.08;;;20.08;;
57561;SDS011;43397;51.530;5.974;2023-02-14T10:22:21;26.58;;;20.10;;
57561;SDS011;43397;51.530;5.974;2023-02-14T10:24:51;24.40;;;18.67;;
57561;SDS011;43397;51.530;5.974;2023-02-14T10:27:25;25.98;;;19.70;;
57561;SDS011;43397;51.530;5.974;2023-02-14T10:29:56;24.98;;;18.35;;
57561;SDS011;43397;51.530;5.974;2023-02-14T10:32:23;23.83;;;18.42;;
57561;SDS011;43397;51.530;5.974;2023-02-14T10:34:56;25.08;;;18.30;;
57561;SDS011;43397;51.530;5.974;2023-02-14T10:37:29;24.48;;;19.20;;
57561;SDS011;43397;51.530;5.974;2023-02-14T10:40:11;25.08;;;18.30;;
57561;SDS011;43397;51.530;5.974;2023-02-14T10:42:55;24.33;;;18.08;;
57561;SDS011;43397;51.530;5.974;2023-02-14T10:45:27;25.77;;;18.45;;
57561;SDS011;43397;51.530;5.974;2023-02-14T10:48:02;24.00;;;19.48;;
57561;SDS011;43397;51.530;5.974;2023-02-14T10:50:42;28.23;;;18.98;;
57561;SDS011;43397;51.530;5.974;2023-02-14T10:53:16;24.95;;;18.60;;
57561;SDS011;43397;51.530;5.974;2023-02-14T10:55:51;26.50;;;19.40;;
57561;SDS011;43397;51.530;5.974;2023-02-14T10:58:21;27.75;;;21.08;;
57561;SDS011;43397;51.530;5.974;2023-02-14T11:00:53;27.00;;;21.17;;
57561;SDS011;43397;51.530;5.974;2023-02-14T11:03:24;26.42;;;19.25;;
57561;SDS011;43397;51.530;5.974;2023-02-14T11:05:53;25.52;;;17.17;;
57561;SDS011;43397;51.530;5.974;2023-02-14T11:08:21;22.73;;;17.73;;
57561;SDS011;43397;51.530;5.974;2023-02-14T11:10:50;25.02;;;18.45;;
57561;SDS011;43397;51.530;5.974;2023-02-14T11:13:27;23.55;;;19.23;;
57561;SDS011;43397;51.530;5.974;2023-02-14T11:15:59;24.10;;;18.20;;
57561;SDS011;43397;51.530;5.974;2023-02-14T11:18:26;23.45;;;18.50;;
57561;SDS011;43397;51.530;5.974;2023-02-14T11:20:59;21.17;;;17.45;;
57561;SDS011;43397;51.530;5.974;2023-02-14T11:23:33;25.38;;;17.73;;
57561;SDS011;43397;51.530;5.974;2023-02-14T11:26:01;24.30;;;18.93;;
57561;SDS011;43397;51.530;5.974;2023-02-14T11:28:29;25.08;;;19.33;;
57561;SDS011;43397;51.530;5.974;2023-02-14T11:30:55;23.98;;;19.20;;
57561;SDS011;43397;51.530;5.974;2023-02-14T11:33:22;24.55;;;18.65;;
57561;SDS011;43397;51.530;5.974;2023-02-14T11:36:05;23.85;;;19.75;;
57561;SDS011;43397;51.530;5.974;2023-02-14T11:38:36;27.83;;;20.08;;
57561;SDS011;43397;51.530;5.974;2023-02-14T11:41:05;24.10;;;17.20;;
57561;SDS011;43397;51.530;5.974;2023-02-14T11:43:33;23.17;;;18.58;;
57561;SDS011;43397;51.530;5.974;2023-02-14T11:46:04;25.77;;;17.65;;
57561;SDS011;43397;51.530;5.974;2023-02-14T11:48:38;26.02;;;19.13;;
57561;SDS011;43397;51.530;5.974;2023-02-14T11:51:05;25.60;;;18.95;;
57561;SDS011;43397;51.530;5.974;2023-02-14T11:53:36;24.38;;;18.48;;
57561;SDS011;43397;51.530;5.974;2023-02-14T11:56:08;24.95;;;19.05;;
57561;SDS011;43397;51.530;5.974;2023-02-14T11:58:36;22.50;;;18.35;;
57561;SDS011;43397;51.530;5.974;2023-02-14T12:01:05;24.40;;;19.50;;
57561;SDS011;43397;51.530;5.974;2023-02-14T12:03:33;27.33;;;18.88;;
57561;SDS011;43397;51.530;5.974;2023-02-14T12:06:02;24.23;;;19.48;;
57561;SDS011;43397;51.530;5.974;2023-02-14T12:08:32;25.13;;;18.42;;
57561;SDS011;43397;51.530;5.974;2023-02-14T12:11:01;22.77;;;16.80;;
57561;SDS011;43397;51.530;5.974;2023-02-14T12:13:29;24.38;;;19.20;;
57561;SDS011;43397;51.530;5.974;2023-02-14T12:15:57;24.20;;;18.33;;
57561;SDS011;43397;51.530;5.974;2023-02-14T12:18:29;25.33;;;18.50;;
57561;SDS011;43397;51.530;5.974;2023-02-14T12:21:32;23.95;;;18.23;;
57561;SDS011;43397;51.530;5.974;2023-02-14T12:24:11;24.65;;;18.60;;
57561;SDS011;43397;51.530;5.974;2023-02-14T12:26:43;26.65;;;18.90;;
57561;SDS011;43397;51.530;5.974;2023-02-14T12:29:15;24.30;;;19.30;;
57561;SDS011;43397;51.530;5.974;2023-02-14T12:31:48;25.95;;;18.52;;
57561;SDS011;43397;51.530;5.974;2023-02-14T12:34:14;26.95;;;18.50;;
57561;SDS011;43397;51.530;5.974;2023-02-14T12:36:59;24.67;;;18.07;;
57561;SDS011;43397;51.530;5.974;2023-02-14T12:39:37;25.25;;;19.10;;
57561;SDS011;43397;51.530;5.974;2023-02-14T12:42:16;23.95;;;17.77;;
57561;SDS011;43397;51.530;5.974;2023-02-14T12:44:59;23.77;;;18.40;;
57561;SDS011;43397;51.530;5.974;2023-02-14T12:47:33;26.58;;;18.35;;
57561;SDS011;43397;51.530;5.974;2023-02-14T12:50:11;24.08;;;18.77;;
57561;SDS011;43397;51.530;5.974;2023-02-14T12:53:04;25.42;;;17.30;;
57561;SDS011;43397;51.530;5.974;2023-02-14T12:56:01;20.80;;;16.63;;
57561;SDS011;43397;51.530;5.974;2023-02-14T12:58:39;20.23;;;15.95;;
57561;SDS011;43397;51.530;5.974;2023-02-14T13:04:02;21.52;;;15.73;;
57561;SDS011;43397;51.530;5.974;2023-02-14T13:06:42;23.58;;;16.73;;
57561;SDS011;43397;51.530;5.974;2023-02-14T13:09:17;22.33;;;15.68;;
57561;SDS011;43397;51.530;5.974;2023-02-14T13:11:56;22.88;;;16.83;;
57561;SDS011;43397;51.530;5.974;2023-02-14T13:14:40;24.13;;;17.85;;
57561;SDS011;43397;51.530;5.974;2023-02-14T13:17:20;21.05;;;16.13;;
57561;SDS011;43397;51.530;5.974;2023-02-14T13:19:52;21.40;;;16.63;;
57561;SDS011;43397;51.530;5.974;2023-02-14T13:22:24;23.38;;;16.90;;
57561;SDS011;43397;51.530;5.974;2023-02-14T13:24:55;21.85;;;16.73;;
57561;SDS011;43397;51.530;5.974;2023-02-14T13:27:26;21.60;;;15.77;;
57561;SDS011;43397;51.530;5.974;2023-02-14T13:29:56;25.35;;;17.02;;
57561;SDS011;43397;51.530;5.974;2023-02-14T13:32:27;21.38;;;17.88;;
57561;SDS011;43397;51.530;5.974;2023-02-14T13:34:57;23.88;;;17.73;;
57561;SDS011;43397;51.530;5.974;2023-02-14T13:37:25;21.73;;;18.05;;
57561;SDS011;43397;51.530;5.974;2023-02-14T13:39:53;23.23;;;17.42;;
57561;SDS011;43397;51.530;5.974;2023-02-14T13:42:48;24.90;;;17.35;;
57561;SDS011;43397;51.530;5.974;2023-02-14T13:45:49;21.67;;;17.15;;
57561;SDS011;43397;51.530;5.974;2023-02-14T13:48:16;21.85;;;16.23;;
57561;SDS011;43397;51.530;5.974;2023-02-14T13:50:48;23.42;;;16.50;;
57561;SDS011;43397;51.530;5.974;2023-02-14T13:53:27;23.42;;;17.15;;
57561;SDS011;43397;51.530;5.974;2023-02-14T13:56:00;23.02;;;17.08;;
57561;SDS011;43397;51.530;5.974;2023-02-14T13:58:29;21.52;;;16.13;;
57561;SDS011;43397;51.530;5.974;2023-02-14T14:00:55;21.13;;;16.95;;
57561;SDS011;43397;51.530;5.974;2023-02-14T14:06:19;24.63;;;16.67;;
57561;SDS011;43397;51.530;5.974;2023-02-14T14:08:46;24.85;;;16.27;;
57561;SDS011;43397;51.530;5.974;2023-02-14T14:14:34;23.55;;;16.13;;
57561;SDS011;43397;51.530;5.974;2023-02-14T14:17:15;21.75;;;16.30;;
57561;SDS011;43397;51.530;5.974;2023-02-14T14:19:44;22.30;;;16.38;;
57561;SDS011;43397;51.530;5.974;2023-02-14T14:22:12;23.90;;;17.65;;
57561;SDS011;43397;51.530;5.974;2023-02-14T14:24:39;20.73;;;16.67;;
57561;SDS011;43397;51.530;5.974;2023-02-14T14:27:13;23.88;;;17.40;;
57561;SDS011;43397;51.530;5.974;2023-02-14T14:29:44;20.93;;;17.83;;
57561;SDS011;43397;51.530;5.974;2023-02-14T14:32:16;22.40;;;18.40;;
57561;SDS011;43397;51.530;5.974;2023-02-14T14:34:47;23.42;;;18.17;;
57561;SDS011;43397;51.530;5.974;2023-02-14T14:37:15;27.23;;;18.88;;
57561;SDS011;43397;51.530;5.974;2023-02-14T14:39:48;26.92;;;18.10;;
57561;SDS011;43397;51.530;5.974;2023-02-14T14:42:15;22.25;;;17.55;;
57561;SDS011;43397;51.530;5.974;2023-02-14T14:44:45;27.08;;;18.77;;
57561;SDS011;43397;51.530;5.974;2023-02-14T14:47:16;25.38;;;19.92;;
57561;SDS011;43397;51.530;5.974;2023-02-14T14:49:45;23.15;;;17.35;;
57561;SDS011;43397;51.530;5.974;2023-02-14T14:52:16;23.83;;;17.40;;
57561;SDS011;43397;51.530;5.974;2023-02-14T14:54:52;24.45;;;19.05;;
57561;SDS011;43397;51.530;5.974;2023-02-14T14:57:18;24.55;;;17.90;;
57561;SDS011;43397;51.530;5.974;2023-02-14T14:59:46;24.00;;;16.90;;
57561;SDS011;43397;51.530;5.974;2023-02-14T15:02:19;22.58;;;16.48;;
57561;SDS011;43397;51.530;5.974;2023-02-14T15:04:46;24.75;;;16.92;;
57561;SDS011;43397;51.530;5.974;2023-02-14T15:07:16;23.02;;;16.63;;
57561;SDS011;43397;51.530;5.974;2023-02-14T15:09:43;26.17;;;17.05;;